createdAt,value
2022-12-17T00:01:45.792Z,102204.13
2022-12-17T00:04:31.225Z,102193.66
2022-12-17T00:07:16.645Z,102193.47
2022-12-17T00:10:02.425Z,102201.22
2022-12-17T00:12:47.940Z,102192.59
2022-12-17T00:15:33.645Z,102206.69
2022-12-17T00:18:26.076Z,102198.16
2022-12-17T00:21:15.990Z,102207.41
2022-12-17T00:24:01.505Z,102205.19
2022-12-17T00:26:47.081Z,102215.63
2022-12-17T00:29:34.175Z,102211.69
2022-12-17T00:32:19.774Z,102220.47
2022-12-17T00:35:06.116Z,102213.41
2022-12-17T00:37:51.732Z,102221.63
2022-12-17T00:40:37.733Z,102218.00
2022-12-17T00:43:34.056Z,102217.22
2022-12-17T00:46:19.844Z,102214.50
2022-12-17T00:49:06.939Z,102216.94
2022-12-17T00:51:53.504Z,102220.00
2022-12-17T00:54:39.013Z,102220.41
2022-12-17T00:57:24.590Z,102225.00
2022-12-17T01:00:12.083Z,102225.56
2022-12-17T01:02:57.554Z,102218.84
2022-12-17T01:05:44.890Z,102218.84
2022-12-17T01:08:33.753Z,102217.72
2022-12-17T01:11:24.875Z,102218.00
2022-12-17T01:14:11.098Z,102219.00
2022-12-17T01:17:13.714Z,102223.75
2022-12-17T01:19:59.008Z,102222.13
2022-12-17T01:22:44.420Z,102221.31
2022-12-17T01:25:29.862Z,102228.44
2022-12-17T01:28:17.219Z,102242.78
2022-12-17T01:31:02.768Z,102245.50
2022-12-17T01:33:50.883Z,102237.28
2022-12-17T01:36:38.159Z,102246.72
2022-12-17T01:39:23.793Z,102244.28
2022-12-17T01:42:08.978Z,102239.91
2022-12-17T01:45:00.469Z,102238.59
2022-12-17T01:47:49.231Z,102249.19
2022-12-17T01:50:36.270Z,102256.72
2022-12-17T01:53:24.824Z,102252.28
2022-12-17T01:56:11.545Z,102255.75
2022-12-17T01:58:58.702Z,102260.66
2022-12-17T02:01:45.014Z,102258.19
2022-12-17T02:04:31.358Z,102262.47
2022-12-17T02:07:55.732Z,102266.06
2022-12-17T02:10:46.280Z,102264.91
2022-12-17T02:13:38.703Z,102269.50
2022-12-17T02:16:33.817Z,102268.69
2022-12-17T02:19:30.093Z,102274.19
2022-12-17T02:22:21.183Z,102276.31
2022-12-17T02:25:19.966Z,102273.09
2022-12-17T02:28:05.959Z,102274.19
2022-12-17T02:30:52.443Z,102285.25
2022-12-17T02:33:38.697Z,102286.00
2022-12-17T02:36:25.806Z,102290.59
2022-12-17T02:39:11.422Z,102279.75
2022-12-17T02:42:06.559Z,102280.91
2022-12-17T02:44:53.853Z,102293.84
2022-12-17T02:47:41.798Z,102291.63
2022-12-17T02:50:29.352Z,102289.28
2022-12-17T02:53:18.549Z,102294.53
2022-12-17T02:56:03.913Z,102292.97
2022-12-17T02:58:52.403Z,102296.75
2022-12-17T03:01:38.162Z,102287.22
2022-12-17T03:04:23.808Z,102288.06
2022-12-17T03:07:09.612Z,102284.53
2022-12-17T03:09:56.205Z,102283.22
2022-12-17T03:12:42.716Z,102280.72
2022-12-17T03:15:28.209Z,102276.91
2022-12-17T03:18:13.472Z,102281.81
2022-12-17T03:20:59.139Z,102286.47
2022-12-17T03:23:44.585Z,102280.00
2022-12-17T03:26:30.020Z,102274.34
2022-12-17T03:29:15.627Z,102274.66
2022-12-17T03:32:00.906Z,102284.09
2022-12-17T03:34:46.673Z,102283.28
2022-12-17T03:37:31.850Z,102283.28
2022-12-17T03:40:17.471Z,102283.28
2022-12-17T03:43:03.215Z,102279.19
2022-12-17T03:45:48.868Z,102285.09
2022-12-17T03:48:34.961Z,102297.22
2022-12-17T03:51:20.861Z,102294.53
2022-12-17T03:54:06.700Z,102300.50
2022-12-17T03:56:52.514Z,102310.75
2022-12-17T03:59:38.477Z,102295.00
2022-12-17T04:02:24.042Z,102301.00
2022-12-17T04:05:23.329Z,102299.09
2022-12-17T04:08:08.786Z,102302.72
2022-12-17T04:10:54.188Z,102321.66
2022-12-17T04:13:42.768Z,102327.91
2022-12-17T04:16:28.415Z,102314.38
2022-12-17T04:19:14.054Z,102326.09
2022-12-17T04:21:59.641Z,102318.81
2022-12-17T04:24:45.429Z,102312.00
2022-12-17T04:27:31.171Z,102318.38
2022-12-17T04:30:16.791Z,102317.06
2022-12-17T04:33:02.384Z,102312.56
2022-12-17T04:35:47.981Z,102306.91
2022-12-17T04:38:33.422Z,102310.69
2022-12-17T04:41:19.241Z,102315.59
2022-12-17T04:44:04.698Z,102326.19
2022-12-17T04:46:50.147Z,102322.91
2022-12-17T04:49:35.561Z,102309.63
2022-12-17T04:52:21.084Z,102302.91
2022-12-17T04:55:06.489Z,102307.75
2022-12-17T04:57:52.223Z,102300.59
2022-12-17T05:00:39.163Z,102301.16
2022-12-17T05:03:26.411Z,102302.56
2022-12-17T05:06:11.980Z,102310.34
2022-12-17T05:08:57.443Z,102306.03
2022-12-17T05:11:43.519Z,102300.50
2022-12-17T05:14:29.276Z,102309.72
2022-12-17T05:17:15.118Z,102316.50
2022-12-17T05:20:00.713Z,102312.41
2022-12-17T05:22:46.416Z,102315.13
2022-12-17T05:25:31.920Z,102320.59
2022-12-17T05:28:17.490Z,102308.63
2022-12-17T05:31:10.812Z,102298.88
2022-12-17T05:33:56.486Z,102300.50
2022-12-17T05:36:41.604Z,102310.28
2022-12-17T05:39:27.163Z,102311.09
2022-12-17T05:42:12.597Z,102321.91
2022-12-17T05:44:58.309Z,102310.84
2022-12-17T05:47:43.914Z,102318.13
2022-12-17T05:50:29.601Z,102320.03
2022-12-17T05:53:23.938Z,102333.22
2022-12-17T05:56:11.110Z,102332.16
2022-12-17T05:58:57.372Z,102341.34
2022-12-17T06:01:42.822Z,102344.88
2022-12-17T06:04:29.506Z,102339.47
2022-12-17T06:07:14.709Z,102342.97
2022-12-17T06:10:00.397Z,102340.03
2022-12-17T06:12:51.342Z,102344.41
2022-12-17T06:15:37.035Z,102332.00
2022-12-17T06:18:22.450Z,102329.28
2022-12-17T06:21:08.428Z,102330.38
2022-12-17T06:23:53.691Z,102340.88
2022-12-17T06:26:38.929Z,102337.91
2022-12-17T06:29:24.495Z,102335.44
2022-12-17T06:32:10.580Z,102342.75
2022-12-17T06:34:55.838Z,102344.13
2022-12-17T06:38:01.125Z,102335.78
2022-12-17T06:40:46.567Z,102341.44
2022-12-17T06:43:31.980Z,102341.19
2022-12-17T06:46:17.796Z,102349.88
2022-12-17T06:49:04.215Z,102347.41
2022-12-17T06:51:49.735Z,102349.88
2022-12-17T06:54:35.526Z,102347.66
2022-12-17T06:57:21.080Z,102357.94
2022-12-17T07:00:06.642Z,102365.44
2022-12-17T07:02:52.306Z,102366.13
2022-12-17T07:05:38.047Z,102368.81
2022-12-17T07:08:23.417Z,102364.13
2022-12-17T07:11:09.397Z,102364.97
2022-12-17T07:13:55.420Z,102363.22
2022-12-17T07:16:41.362Z,102360.66
2022-12-17T07:19:27.851Z,102370.69
2022-12-17T07:22:14.654Z,102366.25
2022-12-17T07:25:00.080Z,102366.13
2022-12-17T07:27:45.704Z,102374.44
2022-12-17T07:30:31.716Z,102380.53
2022-12-17T07:33:23.189Z,102372.34
2022-12-17T07:36:08.965Z,102379.84
2022-12-17T07:38:54.548Z,102376.22
2022-12-17T07:41:40.280Z,102390.84
2022-12-17T07:44:26.138Z,102401.88
2022-12-17T07:47:11.630Z,102399.66
2022-12-17T07:49:57.309Z,102396.38
2022-12-17T07:52:42.719Z,102399.28
2022-12-17T07:55:28.135Z,102400.38
2022-12-17T07:58:21.704Z,102397.06
2022-12-17T08:01:07.370Z,102411.66
2022-12-17T08:03:53.028Z,102410.84
2022-12-17T08:06:38.947Z,102413.53
2022-12-17T08:09:24.602Z,102412.72
2022-12-17T08:12:10.264Z,102427.53
2022-12-17T08:14:55.675Z,102433.28
2022-12-17T08:17:41.207Z,102443.75
2022-12-17T08:20:27.790Z,102438.56
2022-12-17T08:23:20.336Z,102440.44
2022-12-17T08:26:05.787Z,102442.34
2022-12-17T08:28:51.475Z,102444.22
2022-12-17T08:31:38.346Z,102446.09
2022-12-17T08:34:23.814Z,102450.13
2022-12-17T08:37:09.128Z,102458.22
2022-12-17T08:39:54.884Z,102461.50
2022-12-17T08:42:40.217Z,102451.72
2022-12-17T08:45:26.677Z,102449.63
2022-12-17T08:48:12.584Z,102453.38
2022-12-17T08:50:57.899Z,102453.97
2022-12-17T08:53:43.373Z,102452.91
2022-12-17T08:56:28.866Z,102467.00
2022-12-17T08:59:14.406Z,102468.19
2022-12-17T09:02:00.058Z,102476.06
2022-12-17T09:04:45.604Z,102470.41
2022-12-17T09:07:32.316Z,102466.66
2022-12-17T09:10:17.996Z,102471.00
2022-12-17T09:13:05.080Z,102470.50
2022-12-17T09:15:50.963Z,102461.34
2022-12-17T09:18:40.600Z,102478.75
2022-12-17T09:21:26.629Z,102471.78
2022-12-17T09:24:12.462Z,102478.94
2022-12-17T09:26:57.438Z,102477.31
2022-12-17T09:29:43.120Z,102489.78
2022-12-17T09:32:28.439Z,102483.88
2022-12-17T09:35:13.790Z,102481.78
2022-12-17T09:37:59.390Z,102484.00
2022-12-17T09:40:44.719Z,102483.53
2022-12-17T09:43:50.409Z,102482.56
2022-12-17T09:46:57.776Z,102479.97
2022-12-17T09:49:45.922Z,102486.78
2022-12-17T09:52:48.671Z,102488.28
2022-12-17T09:55:39.811Z,102494.28
2022-12-17T09:58:41.110Z,102492.41
2022-12-17T10:01:38.178Z,102501.09
2022-12-17T10:04:29.571Z,102499.31
2022-12-17T10:07:14.813Z,102496.13
2022-12-17T10:10:01.189Z,102489.16
2022-12-17T10:12:46.947Z,102490.22
2022-12-17T10:15:34.416Z,102486.94
2022-12-17T10:18:29.859Z,102498.94
2022-12-17T10:21:23.657Z,102499.50
2022-12-17T10:24:12.867Z,102500.44
2022-12-17T10:27:07.713Z,102504.66
2022-12-17T10:29:53.746Z,102512.28
2022-12-17T10:32:42.826Z,102518.59
2022-12-17T10:35:44.302Z,102512.72
2022-12-17T10:38:40.223Z,102504.31
2022-12-17T10:41:47.196Z,102513.53
2022-12-17T10:44:39.567Z,102500.22
2022-12-17T10:47:30.854Z,102502.38
2022-12-17T10:50:21.116Z,102490.22
2022-12-17T10:53:07.892Z,102498.44
2022-12-17T10:55:54.681Z,102499.03
2022-12-17T10:58:47.925Z,102496.97
2022-12-17T11:01:42.938Z,102502.81
2022-12-17T11:04:37.826Z,102505.34
2022-12-17T11:07:23.279Z,102505.44
2022-12-17T11:10:11.664Z,102507.66
2022-12-17T11:13:05.364Z,102516.38
2022-12-17T11:15:56.923Z,102515.63
2022-12-17T11:18:49.769Z,102511.09
2022-12-17T11:21:50.177Z,102519.09
2022-12-17T11:24:44.502Z,102520.25
2022-12-17T11:27:37.148Z,102529.53
2022-12-17T11:30:34.391Z,102527.22
2022-12-17T11:33:39.863Z,102524.53
2022-12-17T11:36:40.178Z,102518.34
2022-12-17T11:39:52.166Z,102516.69
2022-12-17T11:42:51.967Z,102516.53
2022-12-17T11:45:52.457Z,102521.56
2022-12-17T11:48:53.700Z,102512.81
2022-12-17T11:52:17.849Z,102516.34
2022-12-17T11:55:35.160Z,102506.66
2022-12-17T11:58:23.724Z,102509.69
2022-12-17T12:01:18.145Z,102510.25
2022-12-17T12:04:53.740Z,102504.34
2022-12-17T12:08:07.485Z,102508.09
2022-12-17T12:11:06.850Z,102506.53
2022-12-17T12:14:14.003Z,102513.84
2022-12-17T12:17:18.561Z,102518.63
2022-12-17T12:20:58.935Z,102512.41
2022-12-17T12:24:22.294Z,102515.53
2022-12-17T12:27:57.113Z,102507.78
2022-12-17T12:30:48.787Z,102507.97
2022-12-17T12:33:37.430Z,102502.56
2022-12-17T12:36:27.011Z,102499.84
2022-12-17T12:39:15.620Z,102494.41
2022-12-17T12:42:16.583Z,102497.19
2022-12-17T12:45:21.660Z,102485.59
2022-12-17T12:48:18.697Z,102489.34
2022-12-17T12:51:14.692Z,102483.94
2022-12-17T12:54:00.479Z,102472.81
2022-12-17T12:56:55.224Z,102479.56
2022-12-17T12:59:48.634Z,102479.81
2022-12-17T13:02:50.450Z,102489.63
2022-12-17T13:05:35.638Z,102488.22
2022-12-17T13:08:20.212Z,102479.28
2022-12-17T13:10:48.590Z,102489.03
2022-12-17T13:13:18.594Z,102477.84
2022-12-17T13:15:50.331Z,102478.13
2022-12-17T13:18:28.525Z,102483.56
2022-12-17T13:21:00.418Z,102486.50
2022-12-17T13:23:31.449Z,102492.75
2022-12-17T13:26:25.837Z,102490.31
2022-12-17T13:28:55.539Z,102488.66
2022-12-17T13:31:27.452Z,102484.28
2022-12-17T13:34:16.959Z,102476.41
2022-12-17T13:36:55.825Z,102487.50
2022-12-17T13:39:22.799Z,102483.19
2022-12-17T13:41:54.682Z,102491.53
2022-12-17T13:44:25.590Z,102490.72
2022-12-17T13:46:54.413Z,102492.63
2022-12-17T13:49:22.527Z,102483.91
2022-12-17T13:52:01.036Z,102487.72
2022-12-17T13:54:28.126Z,102494.19
2022-12-17T13:56:55.305Z,102493.66
2022-12-17T13:59:24.907Z,102497.41
2022-12-17T14:01:54.423Z,102489.78
2022-12-17T14:04:27.005Z,102499.25
2022-12-17T14:06:57.773Z,102504.66
2022-12-17T14:09:35.226Z,102507.63
2022-12-17T14:12:23.985Z,102517.34
2022-12-17T14:15:28.443Z,102517.00
2022-12-17T14:17:57.000Z,102509.59
2022-12-17T14:20:26.205Z,102518.25
2022-12-17T14:23:10.909Z,102510.88
2022-12-17T14:25:43.257Z,102513.25
2022-12-17T14:28:22.655Z,102510.78
2022-12-17T14:31:24.796Z,102516.69
2022-12-17T14:33:39.058Z,102523.44
2022-12-17T14:36:21.300Z,102519.00
2022-12-17T14:38:59.777Z,102513.28
2022-12-17T14:41:47.246Z,102509.91
2022-12-17T14:44:21.718Z,102513.66
2022-12-17T14:46:49.038Z,102511.44
2022-12-17T14:49:19.274Z,102513.25
2022-12-17T14:51:47.851Z,102528.34
2022-12-17T14:54:14.882Z,102522.38
2022-12-17T14:56:42.880Z,102526.13
2022-12-17T14:59:43.477Z,102533.34
2022-12-17T15:02:20.315Z,102523.25
2022-12-17T15:04:47.533Z,102526.47
2022-12-17T15:07:19.590Z,102530.72
2022-12-17T15:09:46.888Z,102533.09
2022-12-17T15:12:13.957Z,102539.00
2022-12-17T15:14:40.753Z,102531.59
2022-12-17T15:17:07.550Z,102530.44
2022-12-17T15:19:35.256Z,102533.88
2022-12-17T15:22:04.186Z,102536.25
2022-12-17T15:24:31.027Z,102541.31
2022-12-17T15:26:58.427Z,102538.53
2022-12-17T15:29:25.241Z,102555.47
2022-12-17T15:31:52.059Z,102556.56
2022-12-17T15:34:19.055Z,102548.66
2022-12-17T15:36:45.909Z,102555.41
2022-12-17T15:39:12.786Z,102551.78
2022-12-17T15:41:58.393Z,102553.66
2022-12-17T15:44:25.242Z,102575.31
2022-12-17T15:46:52.187Z,102582.03
2022-12-17T15:49:19.375Z,102577.31
2022-12-17T15:51:46.827Z,102571.31
2022-12-17T15:54:13.639Z,102575.91
2022-12-17T15:56:40.993Z,102578.88
2022-12-17T15:59:07.973Z,102573.69
2022-12-17T16:01:35.389Z,102575.00
2022-12-17T16:04:02.760Z,102575.47
2022-12-17T16:06:29.567Z,102579.47
2022-12-17T16:08:56.429Z,102575.00
2022-12-17T16:11:23.408Z,102576.31
2022-12-17T16:13:55.100Z,102574.09
2022-12-17T16:16:22.464Z,102581.84
2022-12-17T16:18:50.127Z,102593.13
2022-12-17T16:21:17.101Z,102587.72
2022-12-17T16:23:44.041Z,102587.16
2022-12-17T16:26:11.823Z,102587.63
2022-12-17T16:28:39.537Z,102582.44
2022-12-17T16:31:09.486Z,102586.66
2022-12-17T16:33:39.450Z,102576.09
2022-12-17T16:36:08.190Z,102582.56
2022-12-17T16:38:35.885Z,102593.63
2022-12-17T16:41:03.804Z,102594.94
2022-12-17T16:43:34.365Z,102604.56
2022-12-17T16:46:01.869Z,102601.28
2022-12-17T16:48:28.991Z,102596.09
2022-12-17T16:50:55.752Z,102598.22
2022-12-17T16:53:22.645Z,102583.03
2022-12-17T16:55:50.205Z,102591.63
2022-12-17T16:58:18.025Z,102587.50
2022-12-17T17:00:46.594Z,102585.84
2022-12-17T17:03:13.701Z,102589.63
2022-12-17T17:05:42.083Z,102594.69
2022-12-17T17:08:09.305Z,102596.78
2022-12-17T17:10:37.088Z,102598.91
2022-12-17T17:13:04.551Z,102606.44
2022-12-17T17:15:31.698Z,102610.19
2022-12-17T17:18:01.994Z,102606.28
2022-12-17T17:20:32.519Z,102614.38
2022-12-17T17:23:00.097Z,102617.34
2022-12-17T17:25:43.926Z,102624.63
2022-12-17T17:28:14.455Z,102609.91
2022-12-17T17:30:41.328Z,102615.56
2022-12-17T17:33:08.078Z,102605.22
2022-12-17T17:35:35.253Z,102605.00
2022-12-17T17:38:02.166Z,102605.00
2022-12-17T17:40:28.914Z,102606.63
2022-12-17T17:42:56.062Z,102609.34
2022-12-17T17:45:23.181Z,102619.09
2022-12-17T17:47:50.055Z,102620.16
2022-12-17T17:50:17.113Z,102617.91
2022-12-17T17:52:44.158Z,102627.09
2022-12-17T17:55:10.919Z,102626.25
2022-12-17T17:57:37.781Z,102638.94
2022-12-17T18:00:05.453Z,102626.72
2022-12-17T18:02:32.411Z,102636.69
2022-12-17T18:04:59.709Z,102632.59
2022-12-17T18:07:27.462Z,102643.84
2022-12-17T18:09:55.211Z,102641.38
2022-12-17T18:12:41.759Z,102648.44
2022-12-17T18:15:18.080Z,102645.72
2022-12-17T18:17:47.860Z,102648.19
2022-12-17T18:20:15.287Z,102642.31
2022-12-17T18:22:43.311Z,102637.91
2022-12-17T18:25:10.796Z,102641.75
2022-12-17T18:27:38.343Z,102643.78
2022-12-17T18:30:05.661Z,102651.19
2022-12-17T18:32:33.082Z,102649.53
2022-12-17T18:35:00.069Z,102648.94
2022-12-17T18:37:26.990Z,102651.06
2022-12-17T18:39:53.854Z,102647.16
2022-12-17T18:42:38.908Z,102654.13
2022-12-17T18:45:06.572Z,102672.88
2022-12-17T18:47:33.463Z,102660.28
2022-12-17T18:50:00.286Z,102667.34
2022-12-17T18:52:27.618Z,102670.50
2022-12-17T18:54:54.441Z,102665.09
2022-12-17T18:57:21.334Z,102665.09
2022-12-17T18:59:49.155Z,102665.56
2022-12-17T19:02:16.463Z,102670.06
2022-12-17T19:04:43.487Z,102669.22
2022-12-17T19:07:11.525Z,102674.16
2022-12-17T19:09:40.246Z,102677.69
2022-12-17T19:12:08.954Z,102671.72
2022-12-17T19:14:36.860Z,102681.31
2022-12-17T19:17:05.159Z,102676.97
2022-12-17T19:19:32.532Z,102675.31
2022-12-17T19:22:00.544Z,102668.47
2022-12-17T19:24:27.609Z,102670.59
2022-12-17T19:26:54.807Z,102663.78
2022-12-17T19:29:22.686Z,102668.13
2022-12-17T19:31:49.955Z,102667.78
2022-12-17T19:34:18.969Z,102671.97
2022-12-17T19:36:47.222Z,102669.97
2022-12-17T19:39:17.419Z,102672.75
2022-12-17T19:41:44.581Z,102676.13
2022-12-17T19:44:14.621Z,102689.94
2022-12-17T19:46:42.044Z,102701.41
2022-12-17T19:49:11.465Z,102699.41
2022-12-17T19:51:40.704Z,102706.09
2022-12-17T19:54:09.085Z,102704.88
2022-12-17T19:56:36.883Z,102706.97
2022-12-17T19:59:08.539Z,102702.88
2022-12-17T20:01:46.652Z,102702.25
2022-12-17T20:04:16.071Z,102706.00
2022-12-17T20:06:44.703Z,102703.75
2022-12-17T20:09:12.042Z,102711.63
2022-12-17T20:11:40.467Z,102707.50
2022-12-17T20:14:16.355Z,102706.91
2022-12-17T20:16:48.421Z,102710.88
2022-12-17T20:19:21.094Z,102711.94
2022-12-17T20:21:48.847Z,102713.22
2022-12-17T20:24:16.995Z,102707.19
2022-12-17T20:26:44.816Z,102712.59
2022-12-17T20:29:12.754Z,102713.84
2022-12-17T20:31:40.107Z,102707.03
2022-12-17T20:34:11.549Z,102715.13
2022-12-17T20:36:39.333Z,102718.66
2022-12-17T20:39:07.675Z,102707.03
2022-12-17T20:41:36.475Z,102714.31
2022-12-17T20:44:10.902Z,102711.84
2022-12-17T20:46:38.655Z,102720.78
2022-12-17T20:49:05.970Z,102724.50
2022-12-17T20:51:34.569Z,102734.03
2022-12-17T20:54:02.745Z,102734.41
2022-12-17T20:56:32.561Z,102738.09
2022-12-17T20:59:05.606Z,102739.75
2022-12-17T21:01:35.195Z,102734.34
2022-12-17T21:04:03.044Z,102734.28
2022-12-17T21:06:37.884Z,102737.19
2022-12-17T21:09:05.218Z,102726.84
2022-12-17T21:11:33.534Z,102738.09
2022-12-17T21:14:09.621Z,102736.22
2022-12-17T21:16:38.248Z,102743.09
2022-12-17T21:19:06.455Z,102732.31
2022-12-17T21:21:37.270Z,102744.16
2022-12-17T21:24:05.245Z,102739.81
2022-12-17T21:26:35.558Z,102731.91
2022-12-17T21:29:05.499Z,102736.50
2022-12-17T21:31:35.575Z,102741.91
2022-12-17T21:34:04.730Z,102747.75
2022-12-17T21:36:34.019Z,102747.38
2022-12-17T21:39:08.873Z,102747.38
2022-12-17T21:41:40.332Z,102747.56
2022-12-17T21:44:14.093Z,102741.59
2022-12-17T21:46:48.523Z,102743.44
2022-12-17T21:49:17.231Z,102743.25
2022-12-17T21:51:44.831Z,102741.34
2022-12-17T21:54:17.305Z,102743.84
2022-12-17T21:56:47.348Z,102743.69
2022-12-17T21:59:14.253Z,102742.88
2022-12-17T22:01:41.282Z,102751.56
2022-12-17T22:04:08.343Z,102754.84
2022-12-17T22:06:46.126Z,102755.22
2022-12-17T22:09:24.061Z,102760.88
2022-12-17T22:12:24.300Z,102769.16
2022-12-17T22:14:51.541Z,102770.22
2022-12-17T22:17:18.386Z,102772.69
2022-12-17T22:19:45.579Z,102775.19
2022-12-17T22:22:12.700Z,102780.34
2022-12-17T22:24:39.448Z,102789.66
2022-12-17T22:27:08.825Z,102791.09
2022-12-17T22:29:55.521Z,102791.53
2022-12-17T22:32:41.237Z,102783.63
2022-12-17T22:36:26.763Z,102791.13
2022-12-17T22:40:00.405Z,102783.44
2022-12-17T22:44:29.144Z,102785.28
2022-12-17T22:44:51.147Z,102781.56
2022-12-17T22:46:17.510Z,102781.56
2022-12-17T22:48:44.456Z,102780.72
2022-12-17T22:51:13.342Z,102775.72
2022-12-17T22:53:49.607Z,102771.16
2022-12-17T22:56:32.323Z,102772.78
2022-12-17T22:59:05.923Z,102762.66
2022-12-17T23:01:33.651Z,102768.50
2022-12-17T23:04:02.185Z,102779.91
2022-12-17T23:06:29.341Z,102767.44
2022-12-17T23:08:56.359Z,102768.72
2022-12-17T23:11:25.634Z,102770.00
2022-12-17T23:13:54.125Z,102780.56
2022-12-17T23:16:21.621Z,102779.75
2022-12-17T23:18:50.381Z,102789.88
2022-12-17T23:21:19.877Z,102789.25
2022-12-17T23:23:46.985Z,102795.25
2022-12-17T23:26:18.752Z,102793.19
2022-12-17T23:28:48.163Z,102796.91
2022-12-17T23:31:21.138Z,102795.06
2022-12-17T23:33:52.764Z,102789.47
2022-12-17T23:36:40.080Z,102787.41
2022-12-17T23:39:29.978Z,102785.88
2022-12-17T23:42:17.340Z,102781.94
2022-12-17T23:44:48.388Z,102781.94
2022-12-17T23:47:29.885Z,102785.28
2022-12-17T23:50:00.567Z,102776.81
2022-12-17T23:52:27.475Z,102776.22
2022-12-17T23:54:54.327Z,102780.78
2022-12-17T23:57:21.257Z,102771.72
2022-12-17T23:59:48.101Z,102774.00
